createdAt,value
2022-09-26T00:01:36.731Z,98316.06
2022-09-26T00:04:23.014Z,98311.16
2022-09-26T00:06:52.796Z,98301.22
2022-09-26T00:09:21.174Z,98297.22
2022-09-26T00:11:48.727Z,98299.72
2022-09-26T00:14:25.315Z,98299.25
2022-09-26T00:16:52.817Z,98303.88
2022-09-26T00:19:20.077Z,98299.13
2022-09-26T00:21:47.430Z,98300.00
2022-09-26T00:24:14.820Z,98291.03
2022-09-26T00:26:41.508Z,98287.16
2022-09-26T00:29:12.011Z,98281.22
2022-09-26T00:31:44.086Z,98291.03
2022-09-26T00:34:16.987Z,98281.31
2022-09-26T00:36:44.037Z,98276.81
2022-09-26T00:39:14.580Z,98284.69
2022-09-26T00:41:41.644Z,98279.84
2022-09-26T00:44:40.055Z,98269.81
2022-09-26T00:47:20.300Z,98260.94
2022-09-26T00:49:49.652Z,98258.66
2022-09-26T00:52:23.821Z,98259.13
2022-09-26T00:54:54.784Z,98253.47
2022-09-26T00:57:48.468Z,98252.94
2022-09-26T01:00:15.674Z,98248.75
2022-09-26T01:02:44.704Z,98240.03
2022-09-26T01:05:15.902Z,98241.84
2022-09-26T01:07:43.145Z,98239.09
2022-09-26T01:10:10.247Z,98227.81
2022-09-26T01:12:38.068Z,98226.94
2022-09-26T01:15:08.953Z,98220.66
2022-09-26T01:17:39.191Z,98222.66
2022-09-26T01:20:31.396Z,98222.06
2022-09-26T01:23:22.928Z,98217.19
2022-09-26T01:26:28.409Z,98207.31
2022-09-26T01:29:06.818Z,98208.06
2022-09-26T01:32:39.580Z,98199.94
2022-09-26T01:35:19.385Z,98192.44
2022-09-26T01:38:12.400Z,98200.56
2022-09-26T01:41:03.366Z,98201.25
2022-09-26T01:43:54.878Z,98199.41
2022-09-26T01:46:29.211Z,98213.53
2022-09-26T01:49:07.161Z,98208.22
2022-09-26T01:52:19.595Z,98205.72
2022-09-26T01:55:23.794Z,98194.06
2022-09-26T01:58:03.427Z,98208.28
2022-09-26T02:00:31.977Z,98194.97
2022-09-26T02:03:00.440Z,98194.16
2022-09-26T02:05:36.586Z,98185.28
2022-09-26T02:08:20.894Z,98182.47
2022-09-26T02:11:05.244Z,98177.00
2022-09-26T02:13:37.765Z,98175.69
2022-09-26T02:16:16.249Z,98166.81
2022-09-26T02:18:52.397Z,98165.47
2022-09-26T02:21:24.029Z,98161.97
2022-09-26T02:23:53.371Z,98167.84
2022-09-26T02:26:20.233Z,98160.56
2022-09-26T02:28:47.505Z,98161.72
2022-09-26T02:31:21.888Z,98156.25
2022-09-26T02:33:50.487Z,98153.09
2022-09-26T02:36:19.956Z,98150.91
2022-09-26T02:38:47.117Z,98144.72
2022-09-26T02:41:39.637Z,98141.31
2022-09-26T02:44:48.209Z,98144.31
2022-09-26T02:48:01.232Z,98142.22
2022-09-26T02:50:54.722Z,98135.09
2022-09-26T02:53:52.324Z,98136.34
2022-09-26T02:56:36.873Z,98134.84
2022-09-26T02:59:23.613Z,98125.06
2022-09-26T03:02:19.857Z,98129.38
2022-09-26T03:04:57.828Z,98124.78
2022-09-26T03:07:36.633Z,98116.75
2022-09-26T03:10:07.485Z,98115.56
2022-09-26T03:12:36.065Z,98117.38
2022-09-26T03:15:06.202Z,98110.28
2022-09-26T03:17:36.222Z,98099.84
2022-09-26T03:20:11.100Z,98095.84
2022-09-26T03:22:39.917Z,98097.66
2022-09-26T03:25:09.964Z,98087.53
2022-09-26T03:27:38.334Z,98091.34
2022-09-26T03:30:06.192Z,98084.03
2022-09-26T03:32:32.844Z,98083.88
2022-09-26T03:34:59.480Z,98075.25
2022-09-26T03:37:26.173Z,98081.19
2022-09-26T03:39:52.821Z,98075.34
2022-09-26T03:42:19.565Z,98072.19
2022-09-26T03:44:46.266Z,98066.69
2022-09-26T03:47:14.973Z,98061.09
2022-09-26T03:49:41.636Z,98057.25
2022-09-26T03:52:11.683Z,98050.78
2022-09-26T03:54:38.684Z,98052.03
2022-09-26T03:57:05.373Z,98047.13
2022-09-26T03:59:31.984Z,98038.59
2022-09-26T04:01:58.636Z,98032.06
2022-09-26T04:04:25.369Z,98034.69
2022-09-26T04:06:52.065Z,98027.91
2022-09-26T04:09:19.107Z,98019.25
2022-09-26T04:11:46.575Z,98024.13
2022-09-26T04:14:13.314Z,98020.34
2022-09-26T04:16:40.067Z,98013.25
2022-09-26T04:19:06.917Z,98013.75
2022-09-26T04:21:35.329Z,98008.56
2022-09-26T04:24:04.483Z,98002.78
2022-09-26T04:26:31.152Z,98001.31
2022-09-26T04:28:58.952Z,98003.25
2022-09-26T04:31:27.749Z,97999.69
2022-09-26T04:33:55.295Z,97996.97
2022-09-26T04:36:22.441Z,98001.97
2022-09-26T04:38:49.344Z,97996.81
2022-09-26T04:41:20.051Z,97995.81
2022-09-26T04:43:46.893Z,97988.50
2022-09-26T04:46:23.751Z,97984.81
2022-09-26T04:48:55.418Z,97983.00
2022-09-26T04:51:24.311Z,97977.09
2022-09-26T04:53:51.998Z,97975.16
2022-09-26T04:56:21.279Z,97976.38
2022-09-26T04:58:48.424Z,97958.25
2022-09-26T05:01:20.160Z,97968.72
2022-09-26T05:03:47.488Z,97965.25
2022-09-26T05:06:17.446Z,97961.75
2022-09-26T05:08:46.330Z,97958.75
2022-09-26T05:11:15.581Z,97955.16
2022-09-26T05:13:43.720Z,97948.38
2022-09-26T05:16:14.392Z,97942.34
2022-09-26T05:18:41.745Z,97950.78
2022-09-26T05:21:08.874Z,97943.72
2022-09-26T05:23:56.069Z,97937.13
2022-09-26T05:26:43.038Z,97939.22
2022-09-26T05:29:10.478Z,97943.09
2022-09-26T05:31:37.971Z,97928.66
2022-09-26T05:34:07.612Z,97932.53
2022-09-26T05:36:34.480Z,97933.47
2022-09-26T05:39:01.767Z,97930.69
2022-09-26T05:41:31.058Z,97930.00
2022-09-26T05:43:58.426Z,97934.13
2022-09-26T05:46:28.042Z,97930.81
2022-09-26T05:48:55.500Z,97928.09
2022-09-26T05:51:23.258Z,97920.25
2022-09-26T05:53:50.391Z,97923.22
2022-09-26T05:56:19.621Z,97926.78
2022-09-26T05:58:47.191Z,97928.88
2022-09-26T06:01:17.039Z,97928.19
2022-09-26T06:03:45.943Z,97913.91
2022-09-26T06:06:15.903Z,97920.56
2022-09-26T06:08:43.812Z,97921.63
2022-09-26T06:11:17.785Z,97914.22
2022-09-26T06:13:45.724Z,97915.69
2022-09-26T06:16:19.409Z,97906.47
2022-09-26T06:18:48.176Z,97909.59
2022-09-26T06:21:17.414Z,97908.69
2022-09-26T06:23:47.086Z,97905.88
2022-09-26T06:26:20.988Z,97905.28
2022-09-26T06:28:49.884Z,97898.75
2022-09-26T06:31:18.705Z,97903.34
2022-09-26T06:33:53.152Z,97900.81
2022-09-26T06:36:21.861Z,97902.59
2022-09-26T06:38:49.103Z,97895.34
2022-09-26T06:41:16.307Z,97893.81
2022-09-26T06:43:45.142Z,97896.31
2022-09-26T06:46:15.857Z,97890.75
2022-09-26T06:48:45.655Z,97897.63
2022-09-26T06:51:15.196Z,97884.13
2022-09-26T06:53:44.475Z,97884.16
2022-09-26T06:56:11.705Z,97878.84
2022-09-26T06:58:39.118Z,97878.53
2022-09-26T07:01:09.898Z,97878.56
2022-09-26T07:03:37.904Z,97869.50
2022-09-26T07:06:07.404Z,97870.53
2022-09-26T07:09:01.051Z,97869.31
2022-09-26T07:11:38.284Z,97876.81
2022-09-26T07:14:08.005Z,97864.78
2022-09-26T07:16:34.723Z,97878.03
2022-09-26T07:19:01.324Z,97872.94
2022-09-26T07:21:27.900Z,97868.19
2022-09-26T07:23:57.357Z,97872.00
2022-09-26T07:26:24.059Z,97863.56
2022-09-26T07:28:54.962Z,97871.38
2022-09-26T07:31:23.518Z,97858.69
2022-09-26T07:33:50.206Z,97851.53
2022-09-26T07:36:18.338Z,97852.00
2022-09-26T07:38:48.419Z,97851.56
2022-09-26T07:41:15.532Z,97851.72
2022-09-26T07:44:30.235Z,97849.47
2022-09-26T07:46:47.651Z,97851.66
2022-09-26T07:49:32.791Z,97834.25
2022-09-26T07:52:00.167Z,97843.53
2022-09-26T07:54:26.902Z,97838.44
2022-09-26T07:56:55.089Z,97831.38
2022-09-26T07:59:22.773Z,97837.66
2022-09-26T08:01:49.650Z,97834.78
2022-09-26T08:04:18.556Z,97832.28
2022-09-26T08:06:45.157Z,97835.84
2022-09-26T08:09:13.338Z,97832.78
2022-09-26T08:11:40.802Z,97827.75
2022-09-26T08:14:07.545Z,97834.66
2022-09-26T08:16:34.369Z,97825.75
2022-09-26T08:19:01.581Z,97818.88
2022-09-26T08:21:28.227Z,97822.22
2022-09-26T08:23:55.617Z,97814.59
2022-09-26T08:26:24.569Z,97822.69
2022-09-26T08:28:51.352Z,97816.00
2022-09-26T08:31:18.551Z,97814.47
2022-09-26T08:33:45.302Z,97816.09
2022-09-26T08:36:15.152Z,97809.97
2022-09-26T08:38:49.896Z,97809.97
2022-09-26T08:41:49.758Z,97811.72
2022-09-26T08:44:45.529Z,97806.53
2022-09-26T08:47:42.664Z,97797.66
2022-09-26T08:50:50.736Z,97800.06
2022-09-26T08:53:24.063Z,97788.53
2022-09-26T08:55:53.567Z,97787.50
2022-09-26T08:58:37.779Z,97786.72
2022-09-26T09:01:14.190Z,97791.03
2022-09-26T09:03:57.740Z,97791.38
2022-09-26T09:06:28.181Z,97783.91
2022-09-26T09:08:56.570Z,97770.31
2022-09-26T09:11:50.237Z,97782.63
2022-09-26T09:14:36.181Z,97783.81
2022-09-26T09:17:20.337Z,97782.34
2022-09-26T09:20:32.950Z,97785.16
2022-09-26T09:23:20.038Z,97788.19
2022-09-26T09:29:27.426Z,97769.16
2022-09-26T09:31:56.755Z,97765.94
2022-09-26T09:34:39.020Z,97763.91
2022-09-26T09:37:18.321Z,97755.94
2022-09-26T09:39:48.885Z,97751.88
2022-09-26T09:42:40.632Z,97747.66
2022-09-26T09:45:23.803Z,97746.22
2022-09-26T09:47:50.397Z,97731.63
2022-09-26T09:50:41.712Z,97743.28
2022-09-26T09:53:55.745Z,97739.75
2022-09-26T09:57:16.511Z,97724.56
2022-09-26T10:00:15.869Z,97716.50
2022-09-26T10:03:02.035Z,97712.03
2022-09-26T10:05:51.536Z,97717.56
2022-09-26T10:08:35.780Z,97715.09
2022-09-26T10:11:30.720Z,97724.50
2022-09-26T10:14:07.075Z,97704.97
2022-09-26T10:16:35.426Z,97712.91
2022-09-26T10:19:07.935Z,97719.41
2022-09-26T10:21:48.401Z,97718.72
2022-09-26T10:24:45.351Z,97724.19
2022-09-26T10:27:36.804Z,97715.88
2022-09-26T10:30:30.252Z,97728.44
2022-09-26T10:33:01.853Z,97715.94
2022-09-26T10:35:46.053Z,97710.59
2022-09-26T10:38:27.810Z,97708.81
2022-09-26T10:41:01.268Z,97713.44
2022-09-26T10:43:37.876Z,97712.22
2022-09-26T10:46:15.540Z,97706.94
2022-09-26T10:48:53.697Z,97709.13
2022-09-26T10:51:37.921Z,97709.84
2022-09-26T10:54:17.015Z,97701.91
2022-09-26T10:56:48.589Z,97706.91
2022-09-26T10:59:18.293Z,97706.09
2022-09-26T11:01:51.253Z,97710.78
2022-09-26T11:04:41.808Z,97701.16
2022-09-26T11:07:24.378Z,97701.16
2022-09-26T11:09:59.881Z,97707.66
2022-09-26T11:12:35.211Z,97701.56
2022-09-26T11:15:08.851Z,97693.28
2022-09-26T11:17:51.482Z,97697.34
2022-09-26T11:20:50.548Z,97692.72
2022-09-26T11:23:37.371Z,97690.63
2022-09-26T11:26:29.704Z,97690.56
2022-09-26T11:29:34.291Z,97675.38
2022-09-26T11:32:01.299Z,97674.44
2022-09-26T11:34:31.295Z,97672.31
2022-09-26T11:37:30.786Z,97667.69
2022-09-26T11:40:09.974Z,97670.56
2022-09-26T11:42:59.890Z,97663.25
2022-09-26T11:45:47.620Z,97664.13
2022-09-26T11:48:31.512Z,97663.78
2022-09-26T11:51:52.244Z,97671.78
2022-09-26T11:54:42.677Z,97662.34
2022-09-26T11:57:45.285Z,97665.66
2022-09-26T12:00:15.909Z,97652.25
2022-09-26T12:03:33.167Z,97652.25
2022-09-26T12:06:22.730Z,97645.78
2022-09-26T12:09:24.252Z,97646.28
2022-09-26T12:12:19.551Z,97636.63
2022-09-26T12:14:54.953Z,97637.03
2022-09-26T12:17:54.744Z,97633.81
2022-09-26T12:20:37.528Z,97624.16
2022-09-26T12:23:31.081Z,97618.22
2022-09-26T12:26:16.895Z,97618.13
2022-09-26T12:29:28.352Z,97606.88
2022-09-26T12:32:23.575Z,97608.19
2022-09-26T12:35:29.022Z,97598.44
2022-09-26T12:38:32.636Z,97610.84
2022-09-26T12:41:23.151Z,97591.09
2022-09-26T12:44:31.181Z,97598.16
2022-09-26T12:47:21.981Z,97600.81
2022-09-26T12:50:24.779Z,97605.31
2022-09-26T12:53:28.507Z,97585.44
2022-09-26T12:56:07.377Z,97593.53
2022-09-26T12:59:22.890Z,97590.38
2022-09-26T13:02:00.464Z,97590.75
2022-09-26T13:05:14.838Z,97583.16
2022-09-26T13:08:19.600Z,97579.13
2022-09-26T13:11:05.086Z,97571.66
2022-09-26T13:14:14.548Z,97574.88
2022-09-26T13:17:11.315Z,97563.88
2022-09-26T13:19:54.267Z,97556.91
2022-09-26T13:23:03.011Z,97548.47
2022-09-26T13:26:14.087Z,97538.03
2022-09-26T13:29:22.968Z,97546.59
2022-09-26T13:31:59.710Z,97532.19
2022-09-26T13:34:38.846Z,97540.03
2022-09-26T13:37:22.561Z,97534.94
2022-09-26T13:40:16.242Z,97524.94
2022-09-26T13:43:02.706Z,97526.56
2022-09-26T13:45:53.066Z,97509.66
2022-09-26T13:48:49.926Z,97502.09
2022-09-26T13:51:49.409Z,97505.59
2022-09-26T13:54:53.888Z,97506.81
2022-09-26T13:57:35.430Z,97495.94
2022-09-26T14:00:25.672Z,97494.31
2022-09-26T14:03:10.165Z,97497.44
2022-09-26T14:05:46.359Z,97496.41
2022-09-26T14:08:51.166Z,97477.91
2022-09-26T14:11:32.506Z,97468.66
2022-09-26T14:14:21.273Z,97470.09
2022-09-26T14:16:56.668Z,97460.75
2022-09-26T14:19:55.536Z,97452.03
2022-09-26T14:22:25.538Z,97445.66
2022-09-26T14:24:53.678Z,97442.66
2022-09-26T14:27:48.241Z,97435.81
2022-09-26T14:30:29.144Z,97434.63
2022-09-26T14:33:11.003Z,97432.22
2022-09-26T14:35:38.876Z,97430.13
2022-09-26T14:38:15.401Z,97420.50
2022-09-26T14:40:57.871Z,97423.03
2022-09-26T14:43:37.231Z,97405.22
2022-09-26T14:46:13.681Z,97405.97
2022-09-26T14:48:42.745Z,97396.69
2022-09-26T14:51:15.928Z,97395.50
2022-09-26T14:53:48.003Z,97396.75
2022-09-26T14:56:27.062Z,97374.78
2022-09-26T14:58:54.977Z,97387.16
2022-09-26T15:01:37.417Z,97374.28
2022-09-26T15:04:19.160Z,97371.66
2022-09-26T15:07:01.931Z,97362.22
2022-09-26T15:09:55.163Z,97359.53
2022-09-26T15:12:29.790Z,97356.78
2022-09-26T15:15:16.115Z,97355.53
2022-09-26T15:17:58.187Z,97350.34
2022-09-26T15:21:08.894Z,97352.03
2022-09-26T15:23:51.207Z,97357.38
2022-09-26T15:26:25.566Z,97337.34
2022-09-26T15:28:54.572Z,97345.09
2022-09-26T15:31:35.779Z,97345.81
2022-09-26T15:34:13.257Z,97334.94
2022-09-26T15:36:40.931Z,97332.50
2022-09-26T15:39:32.703Z,97331.47
2022-09-26T15:42:20.972Z,97333.50
2022-09-26T15:44:55.246Z,97324.25
2022-09-26T15:47:31.256Z,97327.44
2022-09-26T15:50:10.281Z,97312.97
2022-09-26T15:52:46.397Z,97304.69
2022-09-26T15:55:24.576Z,97312.81
2022-09-26T15:57:55.213Z,97309.28
2022-09-26T16:00:21.977Z,97313.53
2022-09-26T16:02:48.983Z,97307.63
2022-09-26T16:05:16.325Z,97300.09
2022-09-26T16:07:49.165Z,97300.09
2022-09-26T16:10:30.287Z,97299.47
2022-09-26T16:13:00.310Z,97296.97
2022-09-26T16:15:31.199Z,97286.63
2022-09-26T16:17:58.708Z,97284.31
2022-09-26T16:20:29.063Z,97276.03
2022-09-26T16:23:04.717Z,97276.44
2022-09-26T16:25:53.296Z,97269.28
2022-09-26T16:28:39.317Z,97272.03
2022-09-26T16:31:08.258Z,97265.81
2022-09-26T16:33:39.059Z,97261.19
2022-09-26T16:36:21.551Z,97259.53
2022-09-26T16:38:56.931Z,97262.69
2022-09-26T16:42:00.641Z,97261.91
2022-09-26T16:44:36.868Z,97265.06
2022-09-26T16:47:29.707Z,97258.06
2022-09-26T16:49:56.358Z,97262.13
2022-09-26T16:52:36.341Z,97250.34
2022-09-26T16:55:06.057Z,97248.19
2022-09-26T16:57:39.867Z,97250.03
2022-09-26T17:00:36.408Z,97240.28
2022-09-26T17:03:16.304Z,97240.28
2022-09-26T17:05:42.967Z,97247.47
2022-09-26T17:08:10.862Z,97249.75
2022-09-26T17:10:38.072Z,97244.53
2022-09-26T17:13:05.885Z,97247.81
2022-09-26T17:15:34.657Z,97235.34
2022-09-26T17:18:05.918Z,97228.75
2022-09-26T17:20:32.560Z,97229.34
2022-09-26T17:23:08.005Z,97225.81
2022-09-26T17:25:52.976Z,97225.22
2022-09-26T17:28:33.767Z,97224.50
2022-09-26T17:31:06.212Z,97222.50
2022-09-26T17:33:37.797Z,97220.75
2022-09-26T17:36:05.020Z,97221.22
2022-09-26T17:38:34.551Z,97214.53
2022-09-26T17:41:03.545Z,97211.31
2022-09-26T17:43:30.896Z,97216.91
2022-09-26T17:45:58.302Z,97216.31
2022-09-26T17:48:28.684Z,97214.97
2022-09-26T17:50:56.202Z,97207.53
2022-09-26T17:53:25.373Z,97212.22
2022-09-26T17:55:53.050Z,97206.03
2022-09-26T17:58:19.862Z,97213.69
2022-09-26T18:00:50.157Z,97204.97
2022-09-26T18:03:23.389Z,97208.75
2022-09-26T18:05:50.610Z,97221.22
2022-09-26T18:08:21.546Z,97211.69
2022-09-26T18:10:55.099Z,97211.66
2022-09-26T18:13:26.455Z,97204.50
2022-09-26T18:15:55.381Z,97207.69
2022-09-26T18:18:25.365Z,97206.22
2022-09-26T18:20:53.849Z,97208.16
2022-09-26T18:23:26.272Z,97201.19
2022-09-26T18:25:58.922Z,97198.59
2022-09-26T18:28:26.281Z,97185.03
2022-09-26T18:30:58.357Z,97179.91
2022-09-26T18:33:27.779Z,97182.38
2022-09-26T18:35:55.338Z,97177.16
2022-09-26T18:38:22.208Z,97180.63
2022-09-26T18:40:58.737Z,97177.09
2022-09-26T18:43:31.735Z,97174.75
2022-09-26T18:45:59.384Z,97164.69
2022-09-26T18:48:32.889Z,97161.63
2022-09-26T18:51:00.368Z,97159.50
2022-09-26T18:53:30.203Z,97161.63
2022-09-26T18:56:15.658Z,97172.88
2022-09-26T18:58:42.449Z,97169.00
2022-09-26T19:01:22.812Z,97164.63
2022-09-26T19:03:49.828Z,97162.03
2022-09-26T19:06:20.689Z,97159.47
2022-09-26T19:08:51.317Z,97153.72
2022-09-26T19:11:23.882Z,97153.44
2022-09-26T19:13:56.448Z,97158.56
2022-09-26T19:16:24.556Z,97154.59
2022-09-26T19:18:51.789Z,97140.88
2022-09-26T19:21:41.202Z,97140.34
2022-09-26T19:24:22.914Z,97133.25
2022-09-26T19:27:05.961Z,97134.16
2022-09-26T19:29:40.597Z,97135.38
2022-09-26T19:32:17.223Z,97131.97
2022-09-26T19:34:53.596Z,97123.25
2022-09-26T19:37:20.519Z,97112.28
2022-09-26T19:39:47.349Z,97113.63
2022-09-26T19:42:15.744Z,97112.75
2022-09-26T19:44:43.058Z,97104.25
2022-09-26T19:47:22.254Z,97094.28
2022-09-26T19:49:51.798Z,97091.94
2022-09-26T19:52:20.849Z,97092.44
2022-09-26T19:54:48.723Z,97090.75
2022-09-26T19:57:18.178Z,97085.28
2022-09-26T19:59:46.197Z,97081.81
2022-09-26T20:02:22.902Z,97085.31
2022-09-26T20:04:51.490Z,97077.28
2022-09-26T20:07:19.852Z,97066.91
2022-09-26T20:09:47.541Z,97064.88
2022-09-26T20:12:14.781Z,97057.88
2022-09-26T20:14:41.653Z,97070.56
2022-09-26T20:17:23.320Z,97061.94
2022-09-26T20:19:53.149Z,97060.50
2022-09-26T20:22:24.432Z,97050.84
2022-09-26T20:24:55.417Z,97049.97
2022-09-26T20:27:28.471Z,97048.91
2022-09-26T20:30:15.014Z,97042.09
2022-09-26T20:32:42.141Z,97030.94
2022-09-26T20:35:15.246Z,97030.44
2022-09-26T20:37:42.754Z,97022.22
2022-09-26T20:40:22.624Z,97014.34
2022-09-26T20:42:58.511Z,97000.78
2022-09-26T20:45:36.892Z,97010.16
2022-09-26T20:48:05.814Z,97007.41
2022-09-26T20:50:38.378Z,96995.78
2022-09-26T20:53:18.018Z,96998.91
2022-09-26T20:55:46.114Z,96997.03
2022-09-26T20:58:13.251Z,96985.13
2022-09-26T21:00:41.723Z,96984.44
2022-09-26T21:03:11.394Z,96992.97
2022-09-26T21:05:39.022Z,96984.16
2022-09-26T21:08:18.971Z,96983.22
2022-09-26T21:10:45.682Z,96979.72
2022-09-26T21:13:12.407Z,96972.81
2022-09-26T21:15:43.023Z,96965.19
2022-09-26T21:18:25.703Z,96965.53
2022-09-26T21:20:53.779Z,96965.44
2022-09-26T21:23:22.300Z,96968.94
2022-09-26T21:25:49.117Z,96961.94
2022-09-26T21:28:26.819Z,96955.44
2022-09-26T21:30:57.734Z,96953.88
2022-09-26T21:33:24.715Z,96944.03
2022-09-26T21:35:52.203Z,96942.56
2022-09-26T21:38:20.694Z,96951.00
2022-09-26T21:40:54.310Z,96941.50
2022-09-26T21:43:26.747Z,96936.13
2022-09-26T21:45:53.526Z,96930.66
2022-09-26T21:48:20.311Z,96926.63
2022-09-26T21:50:58.317Z,96927.22
2022-09-26T21:54:06.084Z,96914.00
2022-09-26T21:56:46.564Z,96912.53
2022-09-26T21:59:13.279Z,96903.44
2022-09-26T22:01:40.042Z,96901.72
2022-09-26T22:04:06.786Z,96904.38
2022-09-26T22:06:33.764Z,96902.28
2022-09-26T22:09:00.434Z,96895.13
2022-09-26T22:11:27.258Z,96888.94
2022-09-26T22:13:53.975Z,96889.84
2022-09-26T22:16:20.712Z,96894.44
2022-09-26T22:18:47.527Z,96896.78
2022-09-26T22:21:14.211Z,96885.34
2022-09-26T22:23:41.303Z,96882.22
2022-09-26T22:26:08.319Z,96881.72
2022-09-26T22:28:35.600Z,96882.13
2022-09-26T22:31:05.667Z,96877.78
2022-09-26T22:33:33.006Z,96868.78
2022-09-26T22:36:00.073Z,96866.75
2022-09-26T22:38:26.812Z,96863.25
2022-09-26T22:41:05.199Z,96861.88
2022-09-26T22:43:34.163Z,96861.44
2022-09-26T22:46:07.571Z,96863.13
2022-09-26T22:48:41.602Z,96862.38
2022-09-26T22:51:09.016Z,96865.88
2022-09-26T22:53:38.615Z,96859.59
2022-09-26T22:56:08.116Z,96863.84
2022-09-26T22:58:46.811Z,96864.47
2022-09-26T23:01:17.644Z,96862.00
2022-09-26T23:03:44.490Z,96851.56
2022-09-26T23:06:11.988Z,96852.56
2022-09-26T23:08:41.459Z,96849.66
2022-09-26T23:11:11.372Z,96854.63
2022-09-26T23:13:39.419Z,96846.00
2022-09-26T23:16:11.731Z,96847.91
2022-09-26T23:18:41.344Z,96830.81
2022-09-26T23:21:15.275Z,96829.97
2022-09-26T23:23:44.937Z,96823.00
2022-09-26T23:26:21.483Z,96827.03
2022-09-26T23:28:51.907Z,96824.50
2022-09-26T23:31:19.516Z,96819.09
2022-09-26T23:33:47.047Z,96823.41
2022-09-26T23:36:14.413Z,96826.69
2022-09-26T23:38:41.602Z,96822.09
2022-09-26T23:41:10.477Z,96821.47
2022-09-26T23:43:37.329Z,96810.38
2022-09-26T23:46:05.014Z,96810.03
2022-09-26T23:48:32.180Z,96813.50
2022-09-26T23:50:59.122Z,96816.59
2022-09-26T23:53:26.215Z,96811.88
2022-09-26T23:55:53.314Z,96808.03
2022-09-26T23:58:20.200Z,96809.31
